sensor_id;sensor_type;location;lat;lon;timestamp;P1;durP1;ratioP1;P2;durP2;ratioP2
33170;SDS011;19535;50.672;4.206;2022-09-27T00:00:33;21.60;;;19.80;;
33170;SDS011;19535;50.672;4.206;2022-09-27T00:03:00;21.52;;;19.73;;
33170;SDS011;19535;50.672;4.206;2022-09-27T00:05:28;20.00;;;18.40;;
33170;SDS011;19535;50.672;4.206;2022-09-27T00:07:55;19.25;;;17.75;;
33170;SDS011;19535;50.672;4.206;2022-09-27T00:10:22;18.75;;;17.15;;
33170;SDS011;19535;50.672;4.206;2022-09-27T00:12:49;19.05;;;17.55;;
33170;SDS011;19535;50.672;4.206;2022-09-27T00:15:15;17.80;;;16.30;;
33170;SDS011;19535;50.672;4.206;2022-09-27T00:17:42;17.65;;;16.25;;
33170;SDS011;19535;50.672;4.206;2022-09-27T00:20:09;17.15;;;15.85;;
33170;SDS011;19535;50.672;4.206;2022-09-27T00:22:36;16.67;;;15.38;;
33170;SDS011;19535;50.672;4.206;2022-09-27T00:25:03;16.48;;;15.18;;
33170;SDS011;19535;50.672;4.206;2022-09-27T00:27:32;16.15;;;14.85;;
33170;SDS011;19535;50.672;4.206;2022-09-27T00:29:59;15.70;;;14.40;;
33170;SDS011;19535;50.672;4.206;2022-09-27T00:32:26;16.52;;;14.85;;
33170;SDS011;19535;50.672;4.206;2022-09-27T00:34:52;15.63;;;14.43;;
33170;SDS011;19535;50.672;4.206;2022-09-27T00:37:19;15.80;;;14.50;;
33170;SDS011;19535;50.672;4.206;2022-09-27T00:39:46;14.65;;;13.45;;
33170;SDS011;19535;50.672;4.206;2022-09-27T00:42:13;14.95;;;13.75;;
33170;SDS011;19535;50.672;4.206;2022-09-27T00:52:05;13.73;;;12.63;;
33170;SDS011;19535;50.672;4.206;2022-09-27T00:54:35;13.27;;;12.18;;
33170;SDS011;19535;50.672;4.206;2022-09-27T00:57:02;12.57;;;11.57;;
33170;SDS011;19535;50.672;4.206;2022-09-27T00:59:49;12.27;;;11.27;;
33170;SDS011;19535;50.672;4.206;2022-09-27T01:02:19;12.07;;;11.13;;
33170;SDS011;19535;50.672;4.206;2022-09-27T01:04:46;12.77;;;11.77;;
33170;SDS011;19535;50.672;4.206;2022-09-27T01:07:13;12.48;;;11.43;;
33170;SDS011;19535;50.672;4.206;2022-09-27T01:09:40;12.30;;;11.30;;
33170;SDS011;19535;50.672;4.206;2022-09-27T01:12:12;11.95;;;10.98;;
33170;SDS011;19535;50.672;4.206;2022-09-27T01:20:54;11.82;;;10.90;;
33170;SDS011;19535;50.672;4.206;2022-09-27T01:26:05;10.98;;;10.07;;
33170;SDS011;19535;50.672;4.206;2022-09-27T01:33:51;10.95;;;10.05;;
33170;SDS011;19535;50.672;4.206;2022-09-27T01:39:39;10.27;;;9.43;;
33170;SDS011;19535;50.672;4.206;2022-09-27T01:42:15;9.98;;;9.18;;
33170;SDS011;19535;50.672;4.206;2022-09-27T01:44:53;10.93;;;10.02;;
33170;SDS011;19535;50.672;4.206;2022-09-27T01:47:43;10.13;;;9.32;;
33170;SDS011;19535;50.672;4.206;2022-09-27T01:50:16;9.90;;;9.20;;
33170;SDS011;19535;50.672;4.206;2022-09-27T01:52:58;9.52;;;8.73;;
33170;SDS011;19535;50.672;4.206;2022-09-27T01:55:29;9.40;;;8.70;;
33170;SDS011;19535;50.672;4.206;2022-09-27T01:58:14;8.68;;;8.02;;
33170;SDS011;19535;50.672;4.206;2022-09-27T02:00:46;9.30;;;8.60;;
33170;SDS011;19535;50.672;4.206;2022-09-27T02:03:19;9.25;;;8.50;;
33170;SDS011;19535;50.672;4.206;2022-09-27T02:05:49;9.68;;;8.88;;
33170;SDS011;19535;50.672;4.206;2022-09-27T02:11:23;9.07;;;8.27;;
33170;SDS011;19535;50.672;4.206;2022-09-27T02:16:22;8.73;;;8.02;;
33170;SDS011;19535;50.672;4.206;2022-09-27T02:19:03;8.20;;;7.60;;
33170;SDS011;19535;50.672;4.206;2022-09-27T02:22:24;8.30;;;7.60;;
33170;SDS011;19535;50.672;4.206;2022-09-27T02:24:56;7.63;;;7.03;;
33170;SDS011;19535;50.672;4.206;2022-09-27T02:27:35;7.43;;;6.82;;
33170;SDS011;19535;50.672;4.206;2022-09-27T02:30:10;8.18;;;7.57;;
33170;SDS011;19535;50.672;4.206;2022-09-27T02:32:38;8.23;;;7.53;;
33170;SDS011;19535;50.672;4.206;2022-09-27T02:35:07;8.13;;;7.53;;
33170;SDS011;19535;50.672;4.206;2022-09-27T02:37:38;8.38;;;7.68;;
33170;SDS011;19535;50.672;4.206;2022-09-27T02:40:05;7.93;;;7.22;;
33170;SDS011;19535;50.672;4.206;2022-09-27T02:42:32;7.93;;;7.32;;
33170;SDS011;19535;50.672;4.206;2022-09-27T02:44:59;7.80;;;7.10;;
33170;SDS011;19535;50.672;4.206;2022-09-27T02:47:29;7.78;;;7.15;;
33170;SDS011;19535;50.672;4.206;2022-09-27T02:58:45;7.15;;;6.65;;
33170;SDS011;19535;50.672;4.206;2022-09-27T03:04:13;6.70;;;6.15;;
33170;SDS011;19535;50.672;4.206;2022-09-27T03:06:48;7.22;;;6.63;;
33170;SDS011;19535;50.672;4.206;2022-09-27T03:09:17;7.10;;;6.50;;
33170;SDS011;19535;50.672;4.206;2022-09-27T03:11:47;6.47;;;5.97;;
33170;SDS011;19535;50.672;4.206;2022-09-27T03:14:14;6.53;;;6.03;;
33170;SDS011;19535;50.672;4.206;2022-09-27T03:16:41;7.28;;;6.68;;
33170;SDS011;19535;50.672;4.206;2022-09-27T03:19:08;5.65;;;5.25;;
33170;SDS011;19535;50.672;4.206;2022-09-27T03:21:35;6.80;;;6.20;;
33170;SDS011;19535;50.672;4.206;2022-09-27T03:24:02;6.60;;;6.10;;
33170;SDS011;19535;50.672;4.206;2022-09-27T03:26:29;6.32;;;5.82;;
33170;SDS011;19535;50.672;4.206;2022-09-27T03:28:56;6.03;;;5.53;;
33170;SDS011;19535;50.672;4.206;2022-09-27T03:31:22;6.22;;;5.72;;
33170;SDS011;19535;50.672;4.206;2022-09-27T03:33:49;6.03;;;5.57;;
33170;SDS011;19535;50.672;4.206;2022-09-27T03:36:16;6.13;;;5.63;;
33170;SDS011;19535;50.672;4.206;2022-09-27T03:38:43;5.97;;;5.47;;
33170;SDS011;19535;50.672;4.206;2022-09-27T03:41:10;6.40;;;5.90;;
33170;SDS011;19535;50.672;4.206;2022-09-27T03:43:36;5.70;;;5.30;;
33170;SDS011;19535;50.672;4.206;2022-09-27T03:46:04;5.57;;;5.18;;
33170;SDS011;19535;50.672;4.206;2022-09-27T03:48:31;5.45;;;5.05;;
33170;SDS011;19535;50.672;4.206;2022-09-27T03:50:58;6.13;;;5.53;;
33170;SDS011;19535;50.672;4.206;2022-09-27T03:53:24;5.40;;;5.00;;
33170;SDS011;19535;50.672;4.206;2022-09-27T03:55:51;5.22;;;4.82;;
33170;SDS011;19535;50.672;4.206;2022-09-27T03:58:19;6.13;;;5.63;;
33170;SDS011;19535;50.672;4.206;2022-09-27T04:00:46;5.10;;;4.70;;
33170;SDS011;19535;50.672;4.206;2022-09-27T04:03:13;5.68;;;5.28;;
33170;SDS011;19535;50.672;4.206;2022-09-27T04:05:40;4.95;;;4.60;;
33170;SDS011;19535;50.672;4.206;2022-09-27T04:08:07;5.45;;;5.05;;
33170;SDS011;19535;50.672;4.206;2022-09-27T04:10:36;5.22;;;4.82;;
33170;SDS011;19535;50.672;4.206;2022-09-27T04:13:03;5.35;;;4.95;;
33170;SDS011;19535;50.672;4.206;2022-09-27T04:15:30;5.35;;;4.95;;
33170;SDS011;19535;50.672;4.206;2022-09-27T04:17:57;5.10;;;4.70;;
33170;SDS011;19535;50.672;4.206;2022-09-27T04:20:24;4.78;;;4.43;;
33170;SDS011;19535;50.672;4.206;2022-09-27T04:22:50;4.75;;;4.35;;
33170;SDS011;19535;50.672;4.206;2022-09-27T04:25:17;4.75;;;4.38;;
33170;SDS011;19535;50.672;4.206;2022-09-27T04:27:44;4.72;;;4.32;;
33170;SDS011;19535;50.672;4.206;2022-09-27T04:30:11;6.30;;;4.40;;
33170;SDS011;19535;50.672;4.206;2022-09-27T04:32:42;4.60;;;4.20;;
33170;SDS011;19535;50.672;4.206;2022-09-27T04:35:10;4.20;;;3.90;;
33170;SDS011;19535;50.672;4.206;2022-09-27T04:37:56;4.60;;;4.20;;
33170;SDS011;19535;50.672;4.206;2022-09-27T04:40:23;4.43;;;4.03;;
33170;SDS011;19535;50.672;4.206;2022-09-27T04:42:50;4.40;;;4.00;;
33170;SDS011;19535;50.672;4.206;2022-09-27T04:45:18;4.40;;;4.10;;
33170;SDS011;19535;50.672;4.206;2022-09-27T04:47:45;4.38;;;4.07;;
33170;SDS011;19535;50.672;4.206;2022-09-27T04:50:13;4.05;;;3.75;;
33170;SDS011;19535;50.672;4.206;2022-09-27T04:52:42;4.25;;;3.95;;
33170;SDS011;19535;50.672;4.206;2022-09-27T04:55:09;4.40;;;4.10;;
33170;SDS011;19535;50.672;4.206;2022-09-27T04:57:36;4.07;;;3.78;;
33170;SDS011;19535;50.672;4.206;2022-09-27T05:00:04;4.13;;;3.83;;
33170;SDS011;19535;50.672;4.206;2022-09-27T05:02:31;4.15;;;3.85;;
33170;SDS011;19535;50.672;4.206;2022-09-27T05:04:58;3.88;;;3.58;;
33170;SDS011;19535;50.672;4.206;2022-09-27T05:07:25;3.85;;;3.55;;
33170;SDS011;19535;50.672;4.206;2022-09-27T05:09:52;4.10;;;3.80;;
33170;SDS011;19535;50.672;4.206;2022-09-27T05:12:20;3.83;;;3.53;;
33170;SDS011;19535;50.672;4.206;2022-09-27T05:14:47;3.90;;;3.60;;
33170;SDS011;19535;50.672;4.206;2022-09-27T05:17:14;3.42;;;3.22;;
33170;SDS011;19535;50.672;4.206;2022-09-27T05:19:41;3.30;;;3.10;;
33170;SDS011;19535;50.672;4.206;2022-09-27T05:22:08;4.05;;;3.75;;
33170;SDS011;19535;50.672;4.206;2022-09-27T05:24:35;3.85;;;3.55;;
33170;SDS011;19535;50.672;4.206;2022-09-27T05:27:03;3.50;;;3.30;;
33170;SDS011;19535;50.672;4.206;2022-09-27T05:29:33;3.63;;;3.33;;
33170;SDS011;19535;50.672;4.206;2022-09-27T05:32:01;3.45;;;3.25;;
33170;SDS011;19535;50.672;4.206;2022-09-27T05:34:28;3.83;;;3.53;;
33170;SDS011;19535;50.672;4.206;2022-09-27T05:36:57;3.13;;;2.92;;
33170;SDS011;19535;50.672;4.206;2022-09-27T05:39:24;3.22;;;2.92;;
33170;SDS011;19535;50.672;4.206;2022-09-27T05:41:51;3.33;;;3.10;;
33170;SDS011;19535;50.672;4.206;2022-09-27T05:44:19;3.05;;;2.85;;
33170;SDS011;19535;50.672;4.206;2022-09-27T05:46:46;3.15;;;2.95;;
33170;SDS011;19535;50.672;4.206;2022-09-27T05:49:13;20.42;;;18.60;;
33170;SDS011;19535;50.672;4.206;2022-09-27T05:51:40;29.90;;;27.20;;
33170;SDS011;19535;50.672;4.206;2022-09-27T05:54:07;25.65;;;23.45;;
33170;SDS011;19535;50.672;4.206;2022-09-27T05:56:34;22.33;;;20.23;;
33170;SDS011;19535;50.672;4.206;2022-09-27T05:59:01;17.75;;;16.05;;
33170;SDS011;19535;50.672;4.206;2022-09-27T06:01:27;15.55;;;14.05;;
33170;SDS011;19535;50.672;4.206;2022-09-27T06:03:54;12.57;;;11.57;;
33170;SDS011;19535;50.672;4.206;2022-09-27T06:06:21;11.30;;;10.40;;
33170;SDS011;19535;50.672;4.206;2022-09-27T06:08:48;10.60;;;9.80;;
33170;SDS011;19535;50.672;4.206;2022-09-27T06:11:15;9.48;;;8.75;;
33170;SDS011;19535;50.672;4.206;2022-09-27T06:13:42;9.25;;;8.55;;
33170;SDS011;19535;50.672;4.206;2022-09-27T06:16:09;8.65;;;7.95;;
33170;SDS011;19535;50.672;4.206;2022-09-27T06:18:37;7.82;;;7.03;;
33170;SDS011;19535;50.672;4.206;2022-09-27T06:21:04;7.18;;;6.57;;
33170;SDS011;19535;50.672;4.206;2022-09-27T06:23:31;6.95;;;6.28;;
33170;SDS011;19535;50.672;4.206;2022-09-27T06:26:02;6.55;;;6.05;;
33170;SDS011;19535;50.672;4.206;2022-09-27T06:28:30;6.43;;;5.82;;
33170;SDS011;19535;50.672;4.206;2022-09-27T06:30:57;6.40;;;5.90;;
33170;SDS011;19535;50.672;4.206;2022-09-27T06:33:27;7.32;;;6.72;;
33170;SDS011;19535;50.672;4.206;2022-09-27T06:35:54;21.00;;;19.23;;
33170;SDS011;19535;50.672;4.206;2022-09-27T06:38:21;20.95;;;19.15;;
33170;SDS011;19535;50.672;4.206;2022-09-27T06:40:49;15.68;;;14.27;;
33170;SDS011;19535;50.672;4.206;2022-09-27T06:43:16;12.43;;;11.43;;
33170;SDS011;19535;50.672;4.206;2022-09-27T06:45:47;10.75;;;9.85;;
33170;SDS011;19535;50.672;4.206;2022-09-27T06:48:15;9.65;;;8.90;;
33170;SDS011;19535;50.672;4.206;2022-09-27T06:50:43;8.57;;;7.78;;
33170;SDS011;19535;50.672;4.206;2022-09-27T06:53:14;8.65;;;7.60;;
33170;SDS011;19535;50.672;4.206;2022-09-27T06:55:42;8.68;;;7.97;;
33170;SDS011;19535;50.672;4.206;2022-09-27T06:58:09;20.92;;;19.13;;
33170;SDS011;19535;50.672;4.206;2022-09-27T07:00:55;24.13;;;22.13;;
33170;SDS011;19535;50.672;4.206;2022-09-27T07:03:24;18.40;;;16.88;;
33170;SDS011;19535;50.672;4.206;2022-09-27T07:06:03;15.15;;;13.85;;
33170;SDS011;19535;50.672;4.206;2022-09-27T07:08:31;13.27;;;12.07;;
33170;SDS011;19535;50.672;4.206;2022-09-27T07:11:03;10.90;;;10.00;;
33170;SDS011;19535;50.672;4.206;2022-09-27T07:13:30;10.85;;;9.95;;
33170;SDS011;19535;50.672;4.206;2022-09-27T07:15:59;11.70;;;9.32;;
33170;SDS011;19535;50.672;4.206;2022-09-27T07:18:26;9.75;;;8.95;;
33170;SDS011;19535;50.672;4.206;2022-09-27T07:20:53;8.88;;;8.18;;
33170;SDS011;19535;50.672;4.206;2022-09-27T07:23:25;8.60;;;7.90;;
33170;SDS011;19535;50.672;4.206;2022-09-27T07:25:52;7.80;;;7.15;;
33170;SDS011;19535;50.672;4.206;2022-09-27T07:28:19;8.05;;;7.35;;
33170;SDS011;19535;50.672;4.206;2022-09-27T07:30:47;7.88;;;7.20;;
33170;SDS011;19535;50.672;4.206;2022-09-27T07:33:14;7.15;;;6.55;;
33170;SDS011;19535;50.672;4.206;2022-09-27T07:35:41;7.50;;;6.80;;
33170;SDS011;19535;50.672;4.206;2022-09-27T07:38:11;6.40;;;5.90;;
33170;SDS011;19535;50.672;4.206;2022-09-27T07:40:41;6.90;;;6.30;;
33170;SDS011;19535;50.672;4.206;2022-09-27T07:43:09;6.55;;;6.05;;
33170;SDS011;19535;50.672;4.206;2022-09-27T07:45:37;6.13;;;5.63;;
33170;SDS011;19535;50.672;4.206;2022-09-27T07:48:05;6.35;;;5.85;;
33170;SDS011;19535;50.672;4.206;2022-09-27T07:50:32;6.22;;;5.72;;
33170;SDS011;19535;50.672;4.206;2022-09-27T07:52:59;6.35;;;5.47;;
33170;SDS011;19535;50.672;4.206;2022-09-27T07:55:26;6.13;;;5.53;;
33170;SDS011;19535;50.672;4.206;2022-09-27T07:58:00;6.25;;;5.68;;
33170;SDS011;19535;50.672;4.206;2022-09-27T08:00:31;5.85;;;5.35;;
33170;SDS011;19535;50.672;4.206;2022-09-27T08:02:57;5.30;;;4.90;;
33170;SDS011;19535;50.672;4.206;2022-09-27T08:05:25;5.88;;;4.93;;
33170;SDS011;19535;50.672;4.206;2022-09-27T08:07:53;5.35;;;4.95;;
33170;SDS011;19535;50.672;4.206;2022-09-27T08:10:21;5.07;;;4.60;;
33170;SDS011;19535;50.672;4.206;2022-09-27T08:12:51;6.65;;;3.97;;
33170;SDS011;19535;50.672;4.206;2022-09-27T08:15:17;5.47;;;4.90;;
33170;SDS011;19535;50.672;4.206;2022-09-27T08:17:44;4.95;;;4.53;;
33170;SDS011;19535;50.672;4.206;2022-09-27T08:20:11;6.00;;;4.63;;
33170;SDS011;19535;50.672;4.206;2022-09-27T08:22:40;3.88;;;3.58;;
33170;SDS011;19535;50.672;4.206;2022-09-27T08:25:08;4.43;;;4.13;;
33170;SDS011;19535;50.672;4.206;2022-09-27T08:27:35;4.88;;;3.70;;
33170;SDS011;19535;50.672;4.206;2022-09-27T08:30:02;4.07;;;3.78;;
33170;SDS011;19535;50.672;4.206;2022-09-27T08:32:29;3.90;;;3.60;;
33170;SDS011;19535;50.672;4.206;2022-09-27T08:34:57;5.07;;;4.05;;
33170;SDS011;19535;50.672;4.206;2022-09-27T08:37:24;8.43;;;7.60;;
33170;SDS011;19535;50.672;4.206;2022-09-27T08:39:51;8.27;;;7.47;;
33170;SDS011;19535;50.672;4.206;2022-09-27T08:42:27;6.90;;;6.30;;
33170;SDS011;19535;50.672;4.206;2022-09-27T08:45:51;7.32;;;5.10;;
33170;SDS011;19535;50.672;4.206;2022-09-27T08:48:00;5.75;;;5.25;;
33170;SDS011;19535;50.672;4.206;2022-09-27T08:50:32;5.28;;;4.78;;
33170;SDS011;19535;50.672;4.206;2022-09-27T08:55:40;4.72;;;4.32;;
33170;SDS011;19535;50.672;4.206;2022-09-27T09:01:02;4.38;;;4.05;;
33170;SDS011;19535;50.672;4.206;2022-09-27T09:03:37;5.15;;;4.25;;
33170;SDS011;19535;50.672;4.206;2022-09-27T09:06:22;5.25;;;3.97;;
33170;SDS011;19535;50.672;4.206;2022-09-27T09:09:10;4.22;;;3.63;;
33170;SDS011;19535;50.672;4.206;2022-09-27T09:12:01;4.20;;;3.80;;
33170;SDS011;19535;50.672;4.206;2022-09-27T09:15:13;3.75;;;3.45;;
33170;SDS011;19535;50.672;4.206;2022-09-27T09:26:46;3.80;;;3.47;;
33170;SDS011;19535;50.672;4.206;2022-09-27T09:35:14;7.40;;;6.70;;
33170;SDS011;19535;50.672;4.206;2022-09-27T09:37:48;18.98;;;17.35;;
33170;SDS011;19535;50.672;4.206;2022-09-27T09:40:39;15.82;;;12.77;;
33170;SDS011;19535;50.672;4.206;2022-09-27T09:43:12;10.80;;;9.90;;
33170;SDS011;19535;50.672;4.206;2022-09-27T09:45:54;8.68;;;7.78;;
33170;SDS011;19535;50.672;4.206;2022-09-27T09:48:29;6.68;;;6.07;;
33170;SDS011;19535;50.672;4.206;2022-09-27T09:51:03;5.78;;;5.28;;
33170;SDS011;19535;50.672;4.206;2022-09-27T09:53:40;5.63;;;5.13;;
33170;SDS011;19535;50.672;4.206;2022-09-27T10:01:52;12.43;;;11.32;;
33170;SDS011;19535;50.672;4.206;2022-09-27T10:04:25;9.77;;;8.88;;
33170;SDS011;19535;50.672;4.206;2022-09-27T10:06:53;9.65;;;7.75;;
33170;SDS011;19535;50.672;4.206;2022-09-27T10:09:23;7.13;;;6.55;;
33170;SDS011;19535;50.672;4.206;2022-09-27T10:11:51;7.07;;;6.38;;
33170;SDS011;19535;50.672;4.206;2022-09-27T10:14:20;7.20;;;5.90;;
33170;SDS011;19535;50.672;4.206;2022-09-27T10:16:54;5.90;;;5.28;;
33170;SDS011;19535;50.672;4.206;2022-09-27T10:19:31;6.93;;;5.30;;
33170;SDS011;19535;50.672;4.206;2022-09-27T10:22:21;6.05;;;4.65;;
33170;SDS011;19535;50.672;4.206;2022-09-27T10:24:52;5.57;;;4.88;;
33170;SDS011;19535;50.672;4.206;2022-09-27T10:27:20;5.20;;;4.80;;
33170;SDS011;19535;50.672;4.206;2022-09-27T10:29:47;4.97;;;4.57;;
33170;SDS011;19535;50.672;4.206;2022-09-27T10:32:23;5.10;;;4.53;;
33170;SDS011;19535;50.672;4.206;2022-09-27T10:34:53;5.20;;;4.70;;
33170;SDS011;19535;50.672;4.206;2022-09-27T10:37:20;5.18;;;4.70;;
33170;SDS011;19535;50.672;4.206;2022-09-27T10:39:48;5.30;;;4.80;;
33170;SDS011;19535;50.672;4.206;2022-09-27T10:42:21;5.13;;;4.32;;
33170;SDS011;19535;50.672;4.206;2022-09-27T10:45:44;5.10;;;4.18;;
33170;SDS011;19535;50.672;4.206;2022-09-27T10:47:50;4.20;;;3.90;;
33170;SDS011;19535;50.672;4.206;2022-09-27T10:50:18;4.75;;;4.00;;
33170;SDS011;19535;50.672;4.206;2022-09-27T10:53:14;3.95;;;3.65;;
33170;SDS011;19535;50.672;4.206;2022-09-27T10:55:45;4.57;;;3.83;;
33170;SDS011;19535;50.672;4.206;2022-09-27T11:00:52;4.28;;;3.85;;
33170;SDS011;19535;50.672;4.206;2022-09-27T11:03:21;4.28;;;3.95;;
33170;SDS011;19535;50.672;4.206;2022-09-27T11:05:50;3.95;;;3.55;;
33170;SDS011;19535;50.672;4.206;2022-09-27T11:08:30;9.02;;;3.58;;
33170;SDS011;19535;50.672;4.206;2022-09-27T11:11:03;5.55;;;3.83;;
33170;SDS011;19535;50.672;4.206;2022-09-27T11:14:16;4.03;;;3.50;;
33170;SDS011;19535;50.672;4.206;2022-09-27T11:24:44;4.07;;;3.00;;
33170;SDS011;19535;50.672;4.206;2022-09-27T11:27:32;3.47;;;3.10;;
33170;SDS011;19535;50.672;4.206;2022-09-27T11:30:20;4.13;;;2.75;;
33170;SDS011;19535;50.672;4.206;2022-09-27T11:35:50;3.25;;;2.65;;
33170;SDS011;19535;50.672;4.206;2022-09-27T11:38:24;5.10;;;2.85;;
33170;SDS011;19535;50.672;4.206;2022-09-27T11:46:52;3.08;;;2.72;;
33170;SDS011;19535;50.672;4.206;2022-09-27T11:49:42;3.63;;;3.10;;
33170;SDS011;19535;50.672;4.206;2022-09-27T11:55:13;2.72;;;2.40;;
33170;SDS011;19535;50.672;4.206;2022-09-27T11:57:51;2.53;;;2.30;;
33170;SDS011;19535;50.672;4.206;2022-09-27T12:08:35;38.40;;;34.55;;
33170;SDS011;19535;50.672;4.206;2022-09-27T12:11:25;33.70;;;30.30;;
33170;SDS011;19535;50.672;4.206;2022-09-27T12:13:58;27.77;;;25.27;;
33170;SDS011;19535;50.672;4.206;2022-09-27T12:16:29;25.58;;;23.48;;
33170;SDS011;19535;50.672;4.206;2022-09-27T12:18:57;23.20;;;21.10;;
33170;SDS011;19535;50.672;4.206;2022-09-27T12:21:25;20.15;;;18.33;;
33170;SDS011;19535;50.672;4.206;2022-09-27T12:23:53;20.02;;;18.25;;
33170;SDS011;19535;50.672;4.206;2022-09-27T12:28:57;17.90;;;16.10;;
33170;SDS011;19535;50.672;4.206;2022-09-27T12:31:35;19.20;;;17.48;;
33170;SDS011;19535;50.672;4.206;2022-09-27T12:34:17;29.02;;;25.95;;
33170;SDS011;19535;50.672;4.206;2022-09-27T12:36:48;25.75;;;23.58;;
33170;SDS011;19535;50.672;4.206;2022-09-27T12:39:26;23.25;;;21.05;;
33170;SDS011;19535;50.672;4.206;2022-09-27T12:42:02;21.30;;;19.30;;
33170;SDS011;19535;50.672;4.206;2022-09-27T12:44:36;18.17;;;16.58;;
33170;SDS011;19535;50.672;4.206;2022-09-27T12:47:14;16.65;;;15.25;;
33170;SDS011;19535;50.672;4.206;2022-09-27T12:49:58;16.80;;;15.07;;
33170;SDS011;19535;50.672;4.206;2022-09-27T12:52:32;16.27;;;14.60;;
33170;SDS011;19535;50.672;4.206;2022-09-27T13:00:22;24.67;;;22.50;;
33170;SDS011;19535;50.672;4.206;2022-09-27T13:14:18;14.73;;;13.27;;
33170;SDS011;19535;50.672;4.206;2022-09-27T13:16:53;13.20;;;12.10;;
33170;SDS011;19535;50.672;4.206;2022-09-27T13:22:08;35.85;;;32.42;;
33170;SDS011;19535;50.672;4.206;2022-09-27T13:24:55;27.35;;;24.90;;
33170;SDS011;19535;50.672;4.206;2022-09-27T13:32:38;19.33;;;16.65;;
33170;SDS011;19535;50.672;4.206;2022-09-27T13:35:10;15.52;;;14.23;;
33170;SDS011;19535;50.672;4.206;2022-09-27T13:37:56;15.70;;;14.40;;
33170;SDS011;19535;50.672;4.206;2022-09-27T13:45:49;13.90;;;12.70;;
33170;SDS011;19535;50.672;4.206;2022-09-27T13:48:18;16.63;;;15.13;;
33170;SDS011;19535;50.672;4.206;2022-09-27T13:51:03;17.80;;;16.05;;
33170;SDS011;19535;50.672;4.206;2022-09-27T13:53:57;17.10;;;15.43;;
33170;SDS011;19535;50.672;4.206;2022-09-27T13:59:06;13.95;;;12.75;;
33170;SDS011;19535;50.672;4.206;2022-09-27T14:04:41;12.52;;;11.52;;
33170;SDS011;19535;50.672;4.206;2022-09-27T14:07:29;13.32;;;12.23;;
33170;SDS011;19535;50.672;4.206;2022-09-27T14:10:11;11.52;;;10.32;;
33170;SDS011;19535;50.672;4.206;2022-09-27T14:12:40;17.65;;;13.45;;
33170;SDS011;19535;50.672;4.206;2022-09-27T14:15:07;17.05;;;15.43;;
33170;SDS011;19535;50.672;4.206;2022-09-27T14:17:41;16.08;;;13.50;;
33170;SDS011;19535;50.672;4.206;2022-09-27T14:23:21;13.05;;;11.85;;
33170;SDS011;19535;50.672;4.206;2022-09-27T14:25:49;12.35;;;11.23;;
33170;SDS011;19535;50.672;4.206;2022-09-27T14:28:24;11.80;;;10.80;;
33170;SDS011;19535;50.672;4.206;2022-09-27T14:33:43;11.50;;;10.15;;
33170;SDS011;19535;50.672;4.206;2022-09-27T14:36:16;13.82;;;10.63;;
33170;SDS011;19535;50.672;4.206;2022-09-27T14:41:58;36.33;;;14.35;;
33170;SDS011;19535;50.672;4.206;2022-09-27T14:44:25;47.08;;;15.48;;
33170;SDS011;19535;50.672;4.206;2022-09-27T14:47:14;57.58;;;17.02;;
33170;SDS011;19535;50.672;4.206;2022-09-27T14:49:49;70.83;;;19.53;;
33170;SDS011;19535;50.672;4.206;2022-09-27T14:52:22;59.38;;;17.85;;
33170;SDS011;19535;50.672;4.206;2022-09-27T14:55:07;58.45;;;20.02;;
33170;SDS011;19535;50.672;4.206;2022-09-27T14:57:44;66.57;;;19.33;;
33170;SDS011;19535;50.672;4.206;2022-09-27T15:00:23;57.10;;;18.58;;
33170;SDS011;19535;50.672;4.206;2022-09-27T15:02:54;62.10;;;19.27;;
33170;SDS011;19535;50.672;4.206;2022-09-27T15:05:25;53.92;;;18.63;;
33170;SDS011;19535;50.672;4.206;2022-09-27T15:07:53;49.58;;;16.95;;
33170;SDS011;19535;50.672;4.206;2022-09-27T15:10:24;53.28;;;17.30;;
33170;SDS011;19535;50.672;4.206;2022-09-27T15:12:53;49.35;;;17.10;;
33170;SDS011;19535;50.672;4.206;2022-09-27T15:15:24;40.72;;;17.05;;
33170;SDS011;19535;50.672;4.206;2022-09-27T15:17:54;41.92;;;15.85;;
33170;SDS011;19535;50.672;4.206;2022-09-27T15:20:25;38.90;;;14.85;;
33170;SDS011;19535;50.672;4.206;2022-09-27T15:23:01;46.22;;;16.20;;
33170;SDS011;19535;50.672;4.206;2022-09-27T15:28:04;33.60;;;14.32;;
33170;SDS011;19535;50.672;4.206;2022-09-27T15:30:39;34.67;;;15.43;;
33170;SDS011;19535;50.672;4.206;2022-09-27T15:33:16;42.50;;;14.25;;
33170;SDS011;19535;50.672;4.206;2022-09-27T15:35:51;34.78;;;13.95;;
33170;SDS011;19535;50.672;4.206;2022-09-27T15:38:29;37.30;;;14.98;;
33170;SDS011;19535;50.672;4.206;2022-09-27T15:41:18;46.13;;;28.45;;
33170;SDS011;19535;50.672;4.206;2022-09-27T15:43:46;44.33;;;26.17;;
33170;SDS011;19535;50.672;4.206;2022-09-27T15:54:10;33.65;;;15.43;;
33170;SDS011;19535;50.672;4.206;2022-09-27T15:56:40;37.10;;;15.40;;
33170;SDS011;19535;50.672;4.206;2022-09-27T15:59:12;34.05;;;14.77;;
33170;SDS011;19535;50.672;4.206;2022-09-27T16:01:47;28.20;;;15.43;;
